Portada
METAR-TAF:

METAR-TAF

Aeropuertos :

Portorož, Eslovenia

latitud: 45-31N, longitud: 013-34E, altitud: 95 m

Observación

El informe se hizo hace 16 minutos, a las 10:00 UTC
Viento 4 kt del sur-suroeste, variando entre sureste y oeste
Temperatura 12°C
Humedad 44%
Presión 1011 hPa
Visibilidad 10 km o más
Escasas nubes a una altura de 2000 ft

METAR: LJPZ 271000Z 21004KT 130V270 9999 FEW020 12/M00 Q1011

Hora: 11:16 (10:16 UTC)

Pronóstico

El informe se hizo hace 2 horas y 16 minutos, a las 08:00 UTC
Pronóstico válido del 27 a las 09 UTC al 27 a las 18 UTC
Viento 5 kt del este-sureste
Visibilidad 10 km o más
sin nubes por debajo de 1500 m y sin presencia de cumulonimbus.
Evolucionando progresivamente
del 27 a las 09 UTC al 27 a las 10 UTC
Viento 5 kt del sur-suroeste
Temporalmente
del 27 a las 11 UTC al 27 a las 18 UTC
Viento 10 kt del sur-suroeste

TAF: LJPZ 270800Z 2709/2718 12005KT CAVOK BECMG 2709/2710 20005KT TEMPO 2711/2718 20010KT

Observaciones y pronósticos meteorológicos de más de 4000 aeropuertos (mensajes METAR y TAF).

Los puntos amarillos y rojos representan las estaciones disponibles.

Ponga el ratón en el punto deseado para ver el nombre de la estación.

Haga clic para ver las observaciones y los pronósticos meteorológicos.

Para cambiar el mapa : haga clic en los botones verdes con una cruz de color negro para hacer un zoom, en el botón verde con un guión para alejar o en las flechas verdes para mapas adyacentes.


METAR-TAF: